Historique des Minis et Maxis de la station Météo
| Date | Température | Point de rosée | Humidité | Pression | ||||
|---|---|---|---|---|---|---|---|---|
| Mini | Maxi | Mini | Maxi | Mini | Maxi | Mini | Maxi | |
| 14/11/2023 23:59 | 10.89 C° | 13.27 C° | 10,89 C° | 13,27 C° | 100 % | 100 % | 802.23 Hpa | 805.07 Hpa |
| 13/11/2023 23:59 | 0.0 C° | 16.4 C° | 0,00 C° | 9,99 C° | 100 % | 100 % | 644.38 Hpa | 1297.9 Hpa |
| 12/11/2023 23:59 | 4.7 C° | 10.61 C° | 10,00 C° | 9,98 C° | 100 % | 100 % | 1003.42 Hpa | 1008.1 Hpa |
| 11/11/2023 23:59 | 4.62 C° | 14.86 C° | 10,00 C° | 9,99 C° | 98 % | 100 % | 997.1 Hpa | 1007.25 Hpa |
| 10/11/2023 23:59 | 7.04 C° | 11.81 C° | 10,00 C° | 9,99 C° | 100 % | 100 % | 996.22 Hpa | 1000.28 Hpa |
| 09/11/2023 23:59 | 6.97 C° | 10.94 C° | 10,00 C° | 9,99 C° | 100 % | 100 % | 1000.14 Hpa | 1007.54 Hpa |
| 08/11/2023 23:59 | 6.24 C° | 23.9 C° | 10,00 C° | 9,99 C° | 98 % | 100 % | 822.14 Hpa | 1015.71 Hpa |
| 07/11/2023 23:59 | 6.48 C° | 15.18 C° | 10,00 C° | 9,99 C° | 100 % | 100 % | 1009.01 Hpa | 1013.94 Hpa |
| 06/11/2023 23:59 | 7.01 C° | 18.65 C° | 10,00 C° | 9,99 C° | 100 % | 100 % | 998 Hpa | 1009.12 Hpa |
| 05/11/2023 23:59 | 7.9 C° | 10.0 C° | 10,00 C° | 9,90 C° | 100 % | 100 % | 29.68 Hpa | 999.76 Hpa |
| 04/11/2023 23:59 | 9.88 C° | 9.88 C° | 9 C° | 9,88 C° | 100 % | 100 % | 999.76 Hpa | 999.76 Hpa |
| 03/11/2023 23:59 | 9.88 C° | 9.88 C° | 9 C° | 9 C° | 100 % | 100 % | 999.76 Hpa | 999.76 Hpa |
| 02/11/2023 23:59 | 9.88 C° | 9.88 C° | 9 C° | 9 C° | 100 % | 100 % | 999.76 Hpa | 999.76 Hpa |
| 01/11/2023 23:59 | 9.83 C° | 18.57 C° | 10,97 C° | 9,92 C° | 100 % | 100 % | 999.2 Hpa | 1003.04 Hpa |
| 31/10/2023 23:59 | 11.94 C° | 11.94 C° | 11 C° | 11,94 C° | 100 % | 100 % | 999.2 Hpa | 999.2 Hpa |
| 30/10/2023 23:59 | 11.94 C° | 11.94 C° | 11 C° | 11 C° | 100 % | 100 % | 999.2 Hpa | 999.2 Hpa |
| 29/10/2023 23:59 | 11.94 C° | 11.94 C° | 11 C° | 11,94 C° | 100 % | 100 % | 999.2 Hpa | 999.2 Hpa |
| 28/10/2023 23:59 | 11.56 C° | 12.05 C° | 11 C° | 12,05 C° | 100 % | 100 % | 995.92 Hpa | 999.32 Hpa |
| 27/10/2023 23:59 | 11.04 C° | 11.88 C° | 11 C° | 11,88 C° | 100 % | 100 % | 994.5 Hpa | 995.95 Hpa |
| 26/10/2023 23:59 | 10.92 C° | 14.68 C° | 10,92 C° | 14,68 C° | 100 % | 100 % | 994.13 Hpa | 1008.09 Hpa |